Thomson Dream — 9HA2381 — position and weather

sailwx.info

Track history (hours):
 
Tides and Currents Weather Stations Pressure Air Temp Water Temp Dewpoint Dewpoint Depression Visibility Wind Speed Wind Dir Waves Ship Positions

Thomson Dream

Last reported at 2015-Jul-30 21:33 UTC. Time now 2015-Jul-31 13:25 UTC.
Position N 42°30' E 005°13'.

Length 243 m; draft 7.6 m.

Type: Ship. MMSI: 248480975.

Date/timePositionNaut miles runAvg speedWind from/ knotsBaromVisibWave heightAir tempDewpointWater temp
2015-Jul-30 21:33N 42°30' E 005°13'1615.9
2015-Jul-30 20:33N 42°36' E 005°33'1616.3
2015-Jul-30 19:34N 42°43' E 005°53'3316.6
2015-Jul-30 17:33N 42°58' E 006°33'1414.2
2015-Jul-30 16:33N 43°07' E 006°47'1616.0
2015-Jul-30 15:33N 43°23' E 006°46'2 1.6
2015-Jul-30 14:29N 43°25' E 006°46'0 0.0
2015-Jul-30 13:29N 43°25' E 006°46'0 0.1
2015-Jul-30 12:32N 43°25' E 006°46'0 0.1
2015-Jul-30 11:32N 43°25' E 006°46'0 0.0
2015-Jul-30 10:32N 43°25' E 006°46'0 0.0
2015-Jul-30 09:32N 43°25' E 006°46'0 0.0
2015-Jul-30 08:17N 43°25' E 006°46'0 0.0
2015-Jul-30 07:29N 43°25' E 006°46'0 0.0
2015-Jul-30 06:29N 43°25' E 006°46'0 0.0
2015-Jul-30 05:32N 43°25' E 006°46'0 0.0
2015-Jul-30 04:32N 43°25' E 006°46'5 4.8
2015-Jul-30 03:34N 43°23' E 006°51'1313.2
2015-Jul-30 02:34N 43°24' E 007°10'6716.7
2015-Jul-29 22:32N 43°28' E 008°41'1515.7
2015-Jul-29 21:33N 43°30' E 009°03'1515.4
2015-Jul-29 20:33N 43°30' E 009°24'1515.1
2015-Jul-29 19:33N 43°31' E 009°45'1515.4
2015-Jul-29 18:33N 43°30' E 010°06'9 9.1
2015-Jul-29 17:33N 43°33' E 010°18'0 0.0
2015-Jul-29 05:28N 43°33' E 010°18'1 1.0
2015-Jul-29 04:33N 43°32' E 010°17'5 5.3
2015-Jul-29 03:33N 43°28' E 010°13'9 9.5
2015-Jul-29 02:33N 43°19' E 010°11'1110.6
2015-Jul-29 01:33N 43°08' E 010°09'1110.9
2015-Jul-29 00:33N 42°57' E 010°06'2411.0
2015-Jul-28 22:21N 42°34' E 010°15'4816.2
2015-Jul-28 19:24N 42°08' E 011°09'185 3.9
2015-Jul-26 20:08N 41°08' E 007°15'910.8
2015-Jul-26 19:20N 41°03' E 007°06'19411.2
2015-Jul-26 02:04N 39°17' E 003°34'611.1
2015-Jul-26 01:29N 39°14' E 003°27'1112.2
2015-Jul-26 00:33N 39°08' E 003°14'1817.4
2015-Jul-25 23:33N 39°02' E 002°53'1414.6
2015-Jul-25 22:33N 39°13' E 002°42'1615.8
2015-Jul-25 21:31N 39°30' E 002°39'4 0.9
2015-Jul-25 17:24N 39°33' E 002°38'0 0.0
2015-Jul-25 13:33N 39°33' E 002°38'0 0.0
2015-Jul-25 12:33N 39°33' E 002°38'0 0.0
2015-Jul-25 10:33N 39°33' E 002°38'0 0.0
2015-Jul-25 09:33N 39°33' E 002°38'0 0.0
2015-Jul-25 08:33N 39°33' E 002°38'0 0.0
2015-Jul-25 07:33N 39°33' E 002°38'0 0.0
2015-Jul-25 06:34N 39°33' E 002°38'0 0.0
2015-Jul-25 05:30N 39°33' E 002°38'0 0.0
2015-Jul-25 04:34N 39°33' E 002°38'0 0.1
2015-Jul-25 03:33N 39°33' E 002°38'5 5.5
2015-Jul-25 02:33N 39°28' E 002°36'1010.3
2015-Jul-25 01:33N 39°24' E 002°23'1211.6
2015-Jul-25 00:33N 39°31' E 002°10'1111.0
2015-Jul-24 23:33N 39°41' E 002°12'1716.8
2015-Jul-24 22:33N 39°57' E 002°20'1716.7
2015-Jul-24 21:33N 40°13' E 002°27'1616.4
2015-Jul-24 20:33N 40°28' E 002°33'1616.1
2015-Jul-24 19:33N 40°44' E 002°40'1616.4
2015-Jul-24 18:33N 40°59' E 002°46'1716.5
2015-Jul-24 17:33N 41°15' E 002°52'1716.5
2015-Jul-24 16:32N 41°31' E 002°59'1515.6
2015-Jul-24 15:33N 41°46' E 003°05'5 1.5
2015-Jul-24 12:18N 41°51' E 003°07'0 0.0
2015-Jul-24 11:30N 41°51' E 003°07'0 0.0
2015-Jul-24 08:24N 41°51' E 003°07'9 3.0
2015-Jul-24 05:19N 41°49' E 003°20'1214.7
2015-Jul-24 04:32N 41°49' E 003°35'3415.5
2015-Jul-24 02:20N 41°49' E 004°21'1315.6
2015-Jul-24 01:29N 41°49' E 004°39'1112.2
2015-Jul-24 00:33N 41°49' E 004°54'1615.3
2015-Jul-23 23:33N 41°49' E 005°15'1816.5
2015-Jul-23 22:29N 41°49' E 005°38'1414.8
2015-Jul-23 21:31N 41°49' E 005°57'1515.1
2015-Jul-23 20:33N 41°49' E 006°17'1615.6
2015-Jul-23 19:33N 41°49' E 006°38'1616.1
2015-Jul-23 18:33N 41°49' E 006°60'126 6.6
2015-Jul-22 23:33N 41°28' E 009°45'5616.8
2015-Jul-22 20:13N 41°49' E 010°55'2916.4
2015-Jul-22 18:29N 42°01' E 011°29'14 2.6
2015-Jul-22 13:05N 42°06' E 011°47'0 0.0
2015-Jul-22 12:23N 42°06' E 011°47'0 0.0
2015-Jul-22 06:14N 42°06' E 011°47'0 0.0
2015-Jul-22 05:29N 42°06' E 011°47'0 0.2
2015-Jul-22 04:33N 42°06' E 011°47'4 3.4
2015-Jul-22 03:18N 42°02' E 011°43'6 8.3
2015-Jul-22 02:33N 41°57' E 011°48'1414.0
2015-Jul-22 01:33N 41°45' E 011°58'1616.2
2015-Jul-22 00:33N 41°31' E 012°09'1816.1
2015-Jul-21 23:28N 41°17' E 012°23'1516.9
2015-Jul-21 22:33N 41°05' E 012°35'1616.0
2015-Jul-21 21:33N 40°52' E 012°47'1616.1
2015-Jul-21 20:33N 40°43' E 013°05'1312.5
2015-Jul-21 19:30N 40°39' E 013°22'1516.0
2015-Jul-21 18:33N 40°37' E 013°42'1616.0
2015-Jul-21 17:33N 40°38' E 014°03'1514.8
2015-Jul-21 16:34N 40°39' E 014°22'1 0.2
2015-Jul-21 11:16N 40°38' E 014°23'0 0.0
2015-Jul-21 09:31N 40°38' E 014°23'0 0.0
2015-Jul-21 08:30N 40°38' E 014°23'0 0.0
2015-Jul-21 07:32N 40°38' E 014°23'0 0.0
2015-Jul-21 06:13N 40°38' E 014°23'0 0.0
2015-Jul-21 05:18N 40°38' E 014°23'1 1.1
2015-Jul-21 04:33N 40°39' E 014°22'1212.2
2015-Jul-21 03:33N 40°38' E 014°06'1212.4
2015-Jul-21 02:33N 40°37' E 013°50'1512.4
2015-Jul-21 01:23N 40°38' E 013°31'1011.7
2015-Jul-21 00:33N 40°37' E 013°18'1413.7
2015-Jul-20 23:30N 40°38' E 012°59'1718.1
2015-Jul-20 22:34N 40°42' E 012°37'1716.7
2015-Jul-20 21:33N 40°46' E 012°16'  
Track history (hours):
 
Tides and Currents Weather Stations Pressure Air Temp Water Temp Dewpoint Dewpoint Depression Visibility Wind Speed Wind Dir Waves Ship Positions

Thomson Dream

Last reported at 2015-Jul-30 21:33 UTC. Time now 2015-Jul-31 13:25 UTC.
Position N 42°30' E 005°13'.

Length 243 m; draft 7.6 m.

Type: Ship. MMSI: 248480975.

Date/timePositionNaut miles runAvg speedWind from/ knotsBaromVisibWave heightAir tempDewpointWater temp
2015-Jul-30 21:33N 42°30' E 005°13'1615.9
2015-Jul-30 20:33N 42°36' E 005°33'1616.3
2015-Jul-30 19:34N 42°43' E 005°53'3316.6
2015-Jul-30 17:33N 42°58' E 006°33'1414.2
2015-Jul-30 16:33N 43°07' E 006°47'1616.0
2015-Jul-30 15:33N 43°23' E 006°46'2 1.6
2015-Jul-30 14:29N 43°25' E 006°46'0 0.0
2015-Jul-30 13:29N 43°25' E 006°46'0 0.1
2015-Jul-30 12:32N 43°25' E 006°46'0 0.1
2015-Jul-30 11:32N 43°25' E 006°46'0 0.0
2015-Jul-30 10:32N 43°25' E 006°46'0 0.0
2015-Jul-30 09:32N 43°25' E 006°46'0 0.0
2015-Jul-30 08:17N 43°25' E 006°46'0 0.0
2015-Jul-30 07:29N 43°25' E 006°46'0 0.0
2015-Jul-30 06:29N 43°25' E 006°46'0 0.0
2015-Jul-30 05:32N 43°25' E 006°46'0 0.0
2015-Jul-30 04:32N 43°25' E 006°46'5 4.8
2015-Jul-30 03:34N 43°23' E 006°51'1313.2
2015-Jul-30 02:34N 43°24' E 007°10'6716.7
2015-Jul-29 22:32N 43°28' E 008°41'1515.7
2015-Jul-29 21:33N 43°30' E 009°03'1515.4
2015-Jul-29 20:33N 43°30' E 009°24'1515.1
2015-Jul-29 19:33N 43°31' E 009°45'1515.4
2015-Jul-29 18:33N 43°30' E 010°06'9 9.1
2015-Jul-29 17:33N 43°33' E 010°18'0 0.0
2015-Jul-29 05:28N 43°33' E 010°18'1 1.0
2015-Jul-29 04:33N 43°32' E 010°17'5 5.3
2015-Jul-29 03:33N 43°28' E 010°13'9 9.5
2015-Jul-29 02:33N 43°19' E 010°11'1110.6
2015-Jul-29 01:33N 43°08' E 010°09'1110.9
2015-Jul-29 00:33N 42°57' E 010°06'2411.0
2015-Jul-28 22:21N 42°34' E 010°15'4816.2
2015-Jul-28 19:24N 42°08' E 011°09'185 3.9
2015-Jul-26 20:08N 41°08' E 007°15'910.8
2015-Jul-26 19:20N 41°03' E 007°06'19411.2
2015-Jul-26 02:04N 39°17' E 003°34'611.1
2015-Jul-26 01:29N 39°14' E 003°27'1112.2
2015-Jul-26 00:33N 39°08' E 003°14'1817.4
2015-Jul-25 23:33N 39°02' E 002°53'1414.6
2015-Jul-25 22:33N 39°13' E 002°42'1615.8
2015-Jul-25 21:31N 39°30' E 002°39'4 0.9
2015-Jul-25 17:24N 39°33' E 002°38'0 0.0
2015-Jul-25 13:33N 39°33' E 002°38'0 0.0
2015-Jul-25 12:33N 39°33' E 002°38'0 0.0
2015-Jul-25 10:33N 39°33' E 002°38'0 0.0
2015-Jul-25 09:33N 39°33' E 002°38'0 0.0
2015-Jul-25 08:33N 39°33' E 002°38'0 0.0
2015-Jul-25 07:33N 39°33' E 002°38'0 0.0
2015-Jul-25 06:34N 39°33' E 002°38'0 0.0
2015-Jul-25 05:30N 39°33' E 002°38'0 0.0
2015-Jul-25 04:34N 39°33' E 002°38'0 0.1
2015-Jul-25 03:33N 39°33' E 002°38'5 5.5
2015-Jul-25 02:33N 39°28' E 002°36'1010.3
2015-Jul-25 01:33N 39°24' E 002°23'1211.6
2015-Jul-25 00:33N 39°31' E 002°10'1111.0
2015-Jul-24 23:33N 39°41' E 002°12'1716.8
2015-Jul-24 22:33N 39°57' E 002°20'1716.7
2015-Jul-24 21:33N 40°13' E 002°27'1616.4
2015-Jul-24 20:33N 40°28' E 002°33'1616.1
2015-Jul-24 19:33N 40°44' E 002°40'1616.4
2015-Jul-24 18:33N 40°59' E 002°46'1716.5
2015-Jul-24 17:33N 41°15' E 002°52'1716.5
2015-Jul-24 16:32N 41°31' E 002°59'1515.6
2015-Jul-24 15:33N 41°46' E 003°05'5 1.5
2015-Jul-24 12:18N 41°51' E 003°07'0 0.0
2015-Jul-24 11:30N 41°51' E 003°07'0 0.0
2015-Jul-24 08:24N 41°51' E 003°07'9 3.0
2015-Jul-24 05:19N 41°49' E 003°20'1214.7
2015-Jul-24 04:32N 41°49' E 003°35'3415.5
2015-Jul-24 02:20N 41°49' E 004°21'1315.6
2015-Jul-24 01:29N 41°49' E 004°39'1112.2
2015-Jul-24 00:33N 41°49' E 004°54'1615.3
2015-Jul-23 23:33N 41°49' E 005°15'1816.5
2015-Jul-23 22:29N 41°49' E 005°38'1414.8
2015-Jul-23 21:31N 41°49' E 005°57'1515.1
2015-Jul-23 20:33N 41°49' E 006°17'1615.6
2015-Jul-23 19:33N 41°49' E 006°38'1616.1
2015-Jul-23 18:33N 41°49' E 006°60'126 6.6
2015-Jul-22 23:33N 41°28' E 009°45'5616.8
2015-Jul-22 20:13N 41°49' E 010°55'2916.4
2015-Jul-22 18:29N 42°01' E 011°29'14 2.6
2015-Jul-22 13:05N 42°06' E 011°47'0 0.0
2015-Jul-22 12:23N 42°06' E 011°47'0 0.0
2015-Jul-22 06:14N 42°06' E 011°47'0 0.0
2015-Jul-22 05:29N 42°06' E 011°47'0 0.2
2015-Jul-22 04:33N 42°06' E 011°47'4 3.4
2015-Jul-22 03:18N 42°02' E 011°43'6 8.3
2015-Jul-22 02:33N 41°57' E 011°48'1414.0
2015-Jul-22 01:33N 41°45' E 011°58'1616.2
2015-Jul-22 00:33N 41°31' E 012°09'1816.1
2015-Jul-21 23:28N 41°17' E 012°23'1516.9
2015-Jul-21 22:33N 41°05' E 012°35'1616.0
2015-Jul-21 21:33N 40°52' E 012°47'1616.1
2015-Jul-21 20:33N 40°43' E 013°05'1312.5
2015-Jul-21 19:30N 40°39' E 013°22'1516.0
2015-Jul-21 18:33N 40°37' E 013°42'1616.0
2015-Jul-21 17:33N 40°38' E 014°03'1514.8
2015-Jul-21 16:34N 40°39' E 014°22'1 0.2
2015-Jul-21 11:16N 40°38' E 014°23'0 0.0
2015-Jul-21 09:31N 40°38' E 014°23'0 0.0
2015-Jul-21 08:30N 40°38' E 014°23'0 0.0
2015-Jul-21 07:32N 40°38' E 014°23'0 0.0
2015-Jul-21 06:13N 40°38' E 014°23'0 0.0
2015-Jul-21 05:18N 40°38' E 014°23'1 1.1
2015-Jul-21 04:33N 40°39' E 014°22'1212.2
2015-Jul-21 03:33N 40°38' E 014°06'1212.4
2015-Jul-21 02:33N 40°37' E 013°50'1512.4
2015-Jul-21 01:23N 40°38' E 013°31'1011.7
2015-Jul-21 00:33N 40°37' E 013°18'1413.7
2015-Jul-20 23:30N 40°38' E 012°59'1718.1
2015-Jul-20 22:34N 40°42' E 012°37'1716.7
2015-Jul-20 21:33N 40°46' E 012°16'  

Dump ship's entire track history